Remanso, Brazil
Current Conditions -  °F | °C
As of 8:00 PM on Tuesday 27 Jan 2015 (Local Time) from SBPL Reporting Station
Few Clouds Few Clouds  
Wind Chill: 86°   Ceiling: Unl
Heat Index: 86°   Visibility: 6mi
Dew Point: 59°   Wind: 5mph
Humidity: 40%   Direction: 140°SE
Pressure: 29.88"   Gusts: NA
Location:  9.62°S, 42.08°W
Report Text: SBPL 272300Z 14004KT 9999 FEW023 30/15 Q1012
Loading
Personal Weather Stations






























Interactive Weather Map New forecast layout! Learn more

10-Day Weather Forecast

Advertisements
Track Severe Weather on mobile